Time;durP1;ratioP1;P1;durP2;ratioP2;P2;SDS_P1;SDS_P2;PMS_P1;PMS_P2;Temp;Humidity;BMP_temperature;BMP_pressure;BME280_temperature;BME280_humidity;BME280_pressure;Samples;Min_cycle;Max_cycle;Signal;HPM_P1;HPM_P2
2021/03/22 00:01:32;;;;;;;3.42;1.33;;;;;;;;;;5133267;27;20043;-63
2021/03/22 00:03:58;;;;;;;4.22;1.25;;;;;;;;;;5132344;27;20039;-63
2021/03/22 00:06:23;;;;;;;3.25;1.20;;;;;;;;;;5132012;27;20070;-63
2021/03/22 00:08:53;;;;;;;5.85;1.88;;;;;;;;;;5130728;27;20497;-62
2021/03/22 00:11:19;;;;;;;4.35;1.45;;;;;;;;;;5131089;27;20497;-62
2021/03/22 00:13:44;;;;;;;4.57;1.38;;;;;;;;;;5131300;27;20031;-63
2021/03/22 00:16:10;;;;;;;4.50;1.45;;;;;;;;;;5131877;27;20706;-62
2021/03/22 00:18:36;;;;;;;3.55;1.20;;;;;;;;;;5081608;27;20035;-63
2021/03/22 00:21:03;;;;;;;4.65;1.20;;;;;;;;;;5113210;27;20087;-62
2021/03/22 00:23:28;;;;;;;4.32;1.33;;;;;;;;;;5114080;27;20103;-62
2021/03/22 00:25:54;;;;;;;3.08;1.00;;;;;;;;;;5131948;27;20031;-62
2021/03/22 00:28:20;;;;;;;3.58;1.50;;;;;;;;;;5114716;27;20043;-62
2021/03/22 00:30:45;;;;;;;3.42;1.15;;;;;;;;;;5130886;27;20492;-63
2021/03/22 00:33:11;;;;;;;4.13;1.30;;;;;;;;;;5130049;27;20031;-63
2021/03/22 00:35:37;;;;;;;4.18;1.20;;;;;;;;;;5130461;27;20062;-63
2021/03/22 00:38:02;;;;;;;3.83;1.10;;;;;;;;;;5103696;27;20535;-62
2021/03/22 00:40:30;;;;;;;3.20;1.20;;;;;;;;;;5130341;27;20477;-62
2021/03/22 00:42:56;;;;;;;5.13;1.30;;;;;;;;;;5129433;27;20031;-62
2021/03/22 00:45:22;;;;;;;4.20;1.15;;;;;;;;;;5129164;27;20035;-63
2021/03/22 00:47:48;;;;;;;4.35;1.00;;;;;;;;;;5129742;27;20498;-63
2021/03/22 00:50:28;;;;;;;2.78;1.13;;;;;;;;;;5132158;27;20518;-63
2021/03/22 00:52:54;;;;;;;4.22;1.25;;;;;;;;;;5130646;27;20789;-63
2021/03/22 00:55:20;;;;;;;3.25;1.10;;;;;;;;;;5127773;27;20027;-63
2021/03/22 00:57:45;;;;;;;3.33;1.25;;;;;;;;;;5131608;27;20039;-63
2021/03/22 01:00:18;;;;;;;2.42;0.95;;;;;;;;;;5131885;27;20134;-63
2021/03/22 01:02:43;;;;;;;5.43;1.42;;;;;;;;;;5130946;27;20066;-62
2021/03/22 01:05:09;;;;;;;4.72;1.10;;;;;;;;;;5127002;27;20050;-62
2021/03/22 01:07:35;;;;;;;3.90;1.15;;;;;;;;;;5131662;27;20054;-62
2021/03/22 01:10:00;;;;;;;4.40;1.25;;;;;;;;;;5130657;27;20027;-63
2021/03/22 01:12:26;;;;;;;3.47;1.15;;;;;;;;;;5130724;27;20023;-63
2021/03/22 01:14:51;;;;;;;4.13;1.30;;;;;;;;;;5127145;27;20035;-63
2021/03/22 01:17:17;;;;;;;3.70;1.38;;;;;;;;;;5129627;27;20043;-62
2021/03/22 01:19:42;;;;;;;4.15;1.35;;;;;;;;;;5135176;27;20080;-62
2021/03/22 01:22:08;;;;;;;3.33;1.10;;;;;;;;;;5130403;27;20531;-62
2021/03/22 01:24:33;;;;;;;3.25;1.15;;;;;;;;;;5131279;27;20025;-63
2021/03/22 01:27:04;;;;;;;4.93;1.55;;;;;;;;;;5131016;27;20592;-63
2021/03/22 01:29:39;;;;;;;5.17;1.60;;;;;;;;;;5130834;27;20510;-63
2021/03/22 01:32:07;;;;;;;3.28;1.20;;;;;;;;;;5131217;27;20223;-63
2021/03/22 01:34:33;;;;;;;3.20;1.20;;;;;;;;;;5116096;27;20063;-63
2021/03/22 01:36:58;;;;;;;3.97;1.40;;;;;;;;;;5128956;27;20043;-63
2021/03/22 01:39:28;;;;;;;4.28;1.58;;;;;;;;;;5126484;27;20038;-63
2021/03/22 01:42:19;;;;;;;4.45;1.27;;;;;;;;;;5130447;27;20708;-63
2021/03/22 01:44:47;;;;;;;2.95;1.05;;;;;;;;;;5130425;27;21504;-63
2021/03/22 01:47:17;;;;;;;3.95;1.55;;;;;;;;;;5129254;27;20097;-62
2021/03/22 01:49:48;;;;;;;3.35;1.25;;;;;;;;;;5128835;27;20210;-63
2021/03/22 01:52:13;;;;;;;6.22;1.67;;;;;;;;;;5131980;27;20486;-63
2021/03/22 01:54:38;;;;;;;4.60;1.55;;;;;;;;;;5129742;27;20035;-63
2021/03/22 01:57:22;;;;;;;4.78;1.58;;;;;;;;;;5130551;27;20028;-62
2021/03/22 01:59:48;;;;;;;3.65;1.35;;;;;;;;;;5128820;27;20043;-63
2021/03/22 02:02:13;;;;;;;5.70;1.80;;;;;;;;;;5113975;27;20037;-62
2021/03/22 02:04:40;;;;;;;4.28;1.67;;;;;;;;;;5130718;27;20132;-62
2021/03/22 02:07:06;;;;;;;5.25;1.90;;;;;;;;;;5132911;27;20151;-63
2021/03/22 02:09:31;;;;;;;4.00;1.58;;;;;;;;;;5127760;27;20043;-63
2021/03/22 02:11:57;;;;;;;6.07;1.73;;;;;;;;;;5127610;27;20028;-63
2021/03/22 02:14:22;;;;;;;5.60;1.75;;;;;;;;;;5130714;27;20521;-63
2021/03/22 02:17:00;;;;;;;4.80;1.88;;;;;;;;;;5129149;27;20027;-63
2021/03/22 02:20:09;;;;;;;4.95;1.80;;;;;;;;;;5128831;27;21151;-63
2021/03/22 02:22:41;;;;;;;4.82;1.80;;;;;;;;;;5128100;27;20039;-62
2021/03/22 02:25:14;;;;;;;3.25;1.40;;;;;;;;;;5128169;27;20034;-63
2021/03/22 02:27:52;;;;;;;4.40;1.88;;;;;;;;;;5116560;27;20066;-66
2021/03/22 02:30:24;;;;;;;5.32;1.73;;;;;;;;;;5128817;27;20050;-63
2021/03/22 02:33:01;;;;;;;4.18;1.40;;;;;;;;;;5131101;27;20036;-63
2021/03/22 02:35:53;;;;;;;7.10;2.13;;;;;;;;;;5128726;27;20032;-63
2021/03/22 02:38:36;;;;;;;5.68;1.90;;;;;;;;;;5129079;27;20047;-62
2021/03/22 02:41:03;;;;;;;2.53;1.42;;;;;;;;;;5117418;27;20043;-63
2021/03/22 02:43:33;;;;;;;6.60;2.20;;;;;;;;;;5110724;27;20855;-62
2021/03/22 02:45:59;;;;;;;4.63;1.70;;;;;;;;;;5128920;27;20043;-63
2021/03/22 02:48:27;;;;;;;6.28;1.90;;;;;;;;;;5127898;27;20046;-62
2021/03/22 02:51:15;;;;;;;5.60;1.85;;;;;;;;;;5113381;27;20031;-63
2021/03/22 02:54:04;;;;;;;5.88;1.80;;;;;;;;;;5131026;27;20205;-62
2021/03/22 02:56:39;;;;;;;5.70;1.83;;;;;;;;;;5132030;27;20036;-63
2021/03/22 02:59:17;;;;;;;5.88;1.90;;;;;;;;;;5102825;27;20050;-62
2021/03/22 03:01:52;;;;;;;5.15;1.70;;;;;;;;;;5115378;27;20065;-62
2021/03/22 03:04:17;;;;;;;5.13;1.73;;;;;;;;;;5109930;27;20047;-63
2021/03/22 03:06:48;;;;;;;5.57;1.55;;;;;;;;;;5128836;27;20027;-62
2021/03/22 03:09:14;;;;;;;5.38;1.60;;;;;;;;;;5134701;27;20050;-62
2021/03/22 03:11:40;;;;;;;4.38;1.73;;;;;;;;;;5131451;27;20038;-62
2021/03/22 03:14:05;;;;;;;5.55;1.85;;;;;;;;;;5135627;27;21001;-63
2021/03/22 03:16:32;;;;;;;4.63;1.65;;;;;;;;;;5133578;27;20031;-62
2021/03/22 03:18:57;;;;;;;5.25;1.63;;;;;;;;;;5131770;27;20562;-63
2021/03/22 03:21:23;;;;;;;5.35;1.90;;;;;;;;;;5133334;27;20057;-62
2021/03/22 03:23:48;;;;;;;3.67;1.60;;;;;;;;;;5131597;27;20046;-67
2021/03/22 03:26:14;;;;;;;5.82;1.77;;;;;;;;;;5132748;27;20032;-62
2021/03/22 03:28:39;;;;;;;3.15;1.25;;;;;;;;;;5133865;27;20044;-62
2021/03/22 03:31:05;;;;;;;7.07;1.92;;;;;;;;;;5136224;27;20032;-62
2021/03/22 03:33:30;;;;;;;8.18;1.92;;;;;;;;;;5136281;27;20031;-62
2021/03/22 03:35:57;;;;;;;4.43;1.52;;;;;;;;;;5135134;27;20382;-62
2021/03/22 03:38:22;;;;;;;5.82;1.80;;;;;;;;;;5119432;27;20036;-62
2021/03/22 03:40:48;;;;;;;7.10;1.60;;;;;;;;;;5119111;27;20032;-62
2021/03/22 03:43:14;;;;;;;5.15;1.90;;;;;;;;;;5130950;27;20035;-62
2021/03/22 03:45:41;;;;;;;7.03;2.30;;;;;;;;;;5129787;27;20027;-62
2021/03/22 03:48:09;;;;;;;6.13;2.03;;;;;;;;;;5130795;27;20073;-62
2021/03/22 03:50:34;;;;;;;4.15;1.65;;;;;;;;;;5114250;27;20050;-62
2021/03/22 03:53:00;;;;;;;6.72;1.90;;;;;;;;;;5130432;27;20043;-66
2021/03/22 03:55:27;;;;;;;5.10;1.80;;;;;;;;;;5132488;27;20084;-62
2021/03/22 03:57:52;;;;;;;5.50;2.10;;;;;;;;;;5130855;27;20028;-62
2021/03/22 04:00:32;;;;;;;6.32;1.90;;;;;;;;;;5112797;27;20474;-62
2021/03/22 04:02:58;;;;;;;4.80;1.70;;;;;;;;;;5128251;27;20046;-62
2021/03/22 04:05:26;;;;;;;7.53;2.20;;;;;;;;;;5129834;27;20884;-62
2021/03/22 04:07:51;;;;;;;5.97;1.88;;;;;;;;;;5084268;27;20048;-62
2021/03/22 04:10:17;;;;;;;6.65;2.10;;;;;;;;;;5130952;27;20023;-62
2021/03/22 04:12:43;;;;;;;5.07;2.00;;;;;;;;;;5098620;27;20398;-63
2021/03/22 04:15:13;;;;;;;6.63;2.10;;;;;;;;;;5130893;27;20047;-62
2021/03/22 04:17:39;;;;;;;6.53;2.38;;;;;;;;;;5130981;27;20130;-62
2021/03/22 04:20:05;;;;;;;5.47;2.08;;;;;;;;;;5128853;27;20035;-62
2021/03/22 04:22:30;;;;;;;5.00;1.60;;;;;;;;;;5129953;27;20047;-62
2021/03/22 04:24:56;;;;;;;6.22;1.80;;;;;;;;;;5134127;27;20035;-62
2021/03/22 04:27:21;;;;;;;5.88;1.83;;;;;;;;;;5130512;27;20043;-63
2021/03/22 04:29:46;;;;;;;5.85;2.10;;;;;;;;;;5142652;27;20044;-62
2021/03/22 04:32:12;;;;;;;5.43;1.70;;;;;;;;;;5131500;27;20062;-62
2021/03/22 04:34:38;;;;;;;5.22;1.90;;;;;;;;;;5129341;27;20105;-62
2021/03/22 04:37:04;;;;;;;5.25;1.75;;;;;;;;;;5094029;27;20061;-62
2021/03/22 04:39:29;;;;;;;4.53;1.77;;;;;;;;;;5131537;27;20072;-62
2021/03/22 04:41:55;;;;;;;5.93;1.98;;;;;;;;;;5133865;27;20039;-63
2021/03/22 04:44:20;;;;;;;5.25;1.77;;;;;;;;;;5132201;27;20478;-62
2021/03/22 04:46:46;;;;;;;5.57;2.03;;;;;;;;;;5131875;27;20024;-62
2021/03/22 04:49:11;;;;;;;6.13;2.08;;;;;;;;;;5129656;27;20040;-62
2021/03/22 04:51:37;;;;;;;4.43;1.80;;;;;;;;;;5131491;27;20027;-62
2021/03/22 04:54:02;;;;;;;6.40;2.33;;;;;;;;;;5116952;27;20842;-62
2021/03/22 04:56:28;;;;;;;4.35;1.70;;;;;;;;;;5130012;27;20043;-62
2021/03/22 04:58:53;;;;;;;4.13;1.70;;;;;;;;;;5128020;27;20040;-63
2021/03/22 05:01:19;;;;;;;6.03;2.22;;;;;;;;;;5130013;27;20040;-61
2021/03/22 05:03:44;;;;;;;3.78;1.50;;;;;;;;;;5131389;27;20020;-63
2021/03/22 05:06:10;;;;;;;4.47;1.75;;;;;;;;;;5129312;27;20035;-62
2021/03/22 05:08:35;;;;;;;4.97;1.83;;;;;;;;;;5126696;27;20051;-62
2021/03/22 05:11:01;;;;;;;5.65;1.90;;;;;;;;;;5127817;27;20092;-62
2021/03/22 05:13:28;;;;;;;4.18;1.67;;;;;;;;;;5132867;27;20034;-62
2021/03/22 05:15:53;;;;;;;5.00;1.90;;;;;;;;;;5131214;27;20036;-62
2021/03/22 05:18:19;;;;;;;5.32;1.58;;;;;;;;;;5126915;27;20049;-62
2021/03/22 05:20:53;;;;;;;5.13;1.73;;;;;;;;;;5129741;27;20042;-63
2021/03/22 05:23:20;;;;;;;5.05;1.80;;;;;;;;;;5130252;27;20043;-62
2021/03/22 05:25:46;;;;;;;4.60;1.70;;;;;;;;;;5130018;27;20036;-62
2021/03/22 05:28:13;;;;;;;4.47;1.90;;;;;;;;;;5127573;27;20040;-62
2021/03/22 05:30:39;;;;;;;5.00;2.03;;;;;;;;;;5129007;27;20035;-62
2021/03/22 05:33:09;;;;;;;3.85;1.83;;;;;;;;;;5130861;27;20063;-63
2021/03/22 05:35:35;;;;;;;6.40;2.10;;;;;;;;;;5130014;22;20032;-62
2021/03/22 05:38:01;;;;;;;4.75;1.95;;;;;;;;;;5096420;28;20028;-62
2021/03/22 05:40:38;;;;;;;5.07;2.08;;;;;;;;;;5079650;28;20147;-62
2021/03/22 05:43:31;;;;;;;4.55;2.03;;;;;;;;;;5087720;28;20032;-62
2021/03/22 05:46:17;;;;;;;5.20;1.70;;;;;;;;;;5096911;28;20037;-62
2021/03/22 05:48:54;;;;;;;4.60;1.77;;;;;;;;;;5098893;28;20044;-62
2021/03/22 05:51:38;;;;;;;5.15;2.20;;;;;;;;;;5095303;28;20032;-62
2021/03/22 05:54:22;;;;;;;4.43;2.20;;;;;;;;;;5098712;28;20036;-63
2021/03/22 05:57:20;;;;;;;4.13;1.83;;;;;;;;;;5095474;28;20037;-62
2021/03/22 06:00:00;;;;;;;5.32;2.42;;;;;;;;;;5098196;28;21116;-62
2021/03/22 06:02:28;;;;;;;4.60;1.98;;;;;;;;;;5076685;28;20213;-62
2021/03/22 06:04:54;;;;;;;5.20;2.05;;;;;;;;;;5096427;27;20054;-62
2021/03/22 06:07:21;;;;;;;3.95;1.90;;;;;;;;;;5095459;28;20043;-62
2021/03/22 06:10:13;;;;;;;4.45;2.00;;;;;;;;;;5076238;28;20043;-62
2021/03/22 06:13:07;;;;;;;4.93;2.20;;;;;;;;;;5093168;27;20047;-62
2021/03/22 06:15:35;;;;;;;4.60;2.08;;;;;;;;;;5083292;27;20048;-62
2021/03/22 06:18:03;;;;;;;4.90;2.10;;;;;;;;;;5118462;27;20040;-62
2021/03/22 06:20:34;;;;;;;5.60;2.08;;;;;;;;;;5093863;28;20469;-62
2021/03/22 06:23:14;;;;;;;6.50;1.90;;;;;;;;;;5078144;28;20079;-62
2021/03/22 06:25:39;;;;;;;4.32;2.00;;;;;;;;;;5098462;28;20028;-62
2021/03/22 06:28:14;;;;;;;4.43;1.90;;;;;;;;;;5096849;28;20044;-62
2021/03/22 06:30:39;;;;;;;3.70;1.60;;;;;;;;;;5099316;28;20064;-62
2021/03/22 06:33:05;;;;;;;4.07;1.65;;;;;;;;;;5080869;28;20028;-62
2021/03/22 06:35:32;;;;;;;4.28;1.90;;;;;;;;;;5096566;27;20036;-62
2021/03/22 06:37:57;;;;;;;3.95;1.90;;;;;;;;;;5101068;27;20048;-62
2021/03/22 06:40:26;;;;;;;4.80;1.90;;;;;;;;;;5080933;27;20036;-62
2021/03/22 06:43:21;;;;;;;4.93;2.10;;;;;;;;;;5118710;27;20118;-62
2021/03/22 06:45:52;;;;;;;4.07;1.88;;;;;;;;;;5104534;27;20217;-62
2021/03/22 06:48:28;;;;;;;5.93;2.20;;;;;;;;;;5089939;27;20560;-62
2021/03/22 06:51:17;;;;;;;4.28;2.08;;;;;;;;;;5117581;27;20027;-62
2021/03/22 06:53:50;;;;;;;3.22;1.70;;;;;;;;;;5101042;27;20032;-62
2021/03/22 06:56:28;;;;;;;3.13;1.65;;;;;;;;;;5104767;27;20039;-62
2021/03/22 06:59:14;;;;;;;5.93;2.03;;;;;;;;;;5103778;27;20039;-62
2021/03/22 07:01:40;;;;;;;3.90;1.95;;;;;;;;;;5120103;27;20035;-62
2021/03/22 07:04:31;;;;;;;4.03;1.80;;;;;;;;;;5118031;27;20478;-62
2021/03/22 07:07:17;;;;;;;4.25;2.05;;;;;;;;;;5120828;27;20458;-62
2021/03/22 07:09:44;;;;;;;4.85;2.22;;;;;;;;;;5100916;27;20040;-64
2021/03/22 07:12:24;;;;;;;4.57;2.00;;;;;;;;;;5102088;27;20016;-62
2021/03/22 07:14:50;;;;;;;3.30;1.77;;;;;;;;;;5119414;27;20027;-62
2021/03/22 07:17:18;;;;;;;3.80;1.90;;;;;;;;;;5121575;27;20500;-62
2021/03/22 07:20:03;;;;;;;4.40;1.80;;;;;;;;;;5119248;27;20169;-62
2021/03/22 07:22:29;;;;;;;4.15;1.45;;;;;;;;;;5105404;27;20921;-62
2021/03/22 07:25:00;;;;;;;4.18;1.98;;;;;;;;;;5086113;27;20028;-62
2021/03/22 07:27:41;;;;;;;1.50;1.15;;;;;;;;;;5117804;27;20043;-63
2021/03/22 07:30:15;;;;;;;3.30;1.33;;;;;;;;;;5102390;27;20084;-63
2021/03/22 07:32:48;;;;;;;3.15;1.40;;;;;;;;;;5101785;27;20390;-63
2021/03/22 07:35:26;;;;;;;2.50;1.33;;;;;;;;;;5101084;27;20802;-63
2021/03/22 07:38:20;;;;;;;1.58;1.02;;;;;;;;;;5101973;27;20540;-62
2021/03/22 07:40:59;;;;;;;2.80;1.50;;;;;;;;;;5107414;27;20040;-62
2021/03/22 07:44:19;;;;;;;2.95;1.10;;;;;;;;;;5091284;27;20589;-63
2021/03/22 07:47:03;;;;;;;2.22;1.27;;;;;;;;;;5030547;28;20041;-63
2021/03/22 07:49:53;;;;;;;2.75;1.20;;;;;;;;;;5111721;27;20055;-63
2021/03/22 07:52:33;;;;;;;2.08;1.27;;;;;;;;;;5119839;27;20066;-62
2021/03/22 07:55:22;;;;;;;1.10;0.77;;;;;;;;;;5093566;27;20032;-63
2021/03/22 07:58:01;;;;;;;1.95;0.85;;;;;;;;;;5092679;27;20032;-62
2021/03/22 08:00:35;;;;;;;1.52;0.80;;;;;;;;;;5086709;27;20035;-63
2021/03/22 08:03:10;;;;;;;1.25;0.80;;;;;;;;;;5119736;27;20027;-62
2021/03/22 08:06:07;;;;;;;1.02;0.82;;;;;;;;;;5119963;27;20024;-63
2021/03/22 08:08:56;;;;;;;2.20;1.17;;;;;;;;;;5103608;27;20429;-67
2021/03/22 08:11:53;;;;;;;1.52;1.10;;;;;;;;;;5108510;27;20031;-63
2021/03/22 08:14:28;;;;;;;2.72;1.23;;;;;;;;;;5074874;27;20035;-63
2021/03/22 08:17:30;;;;;;;2.20;1.23;;;;;;;;;;5099352;27;20040;-62
2021/03/22 08:20:19;;;;;;;2.17;1.25;;;;;;;;;;5107212;27;20517;-63
2021/03/22 08:22:56;;;;;;;2.13;1.15;;;;;;;;;;5119349;27;20039;-62
2021/03/22 08:25:34;;;;;;;2.60;1.10;;;;;;;;;;5120555;27;20071;-62
2021/03/22 08:28:23;;;;;;;2.15;1.10;;;;;;;;;;5120014;27;20040;-62
2021/03/22 08:31:17;;;;;;;1.58;1.10;;;;;;;;;;5104517;27;20032;-62
2021/03/22 08:33:47;;;;;;;2.28;1.13;;;;;;;;;;5120109;27;20039;-62
2021/03/22 08:36:49;;;;;;;1.52;1.20;;;;;;;;;;5101821;27;20046;-62
2021/03/22 08:39:15;;;;;;;1.35;0.90;;;;;;;;;;5117043;27;20093;-63
2021/03/22 08:41:59;;;;;;;1.20;0.90;;;;;;;;;;5100758;27;20054;-62
2021/03/22 08:45:03;;;;;;;1.70;1.00;;;;;;;;;;5093669;27;20111;-62
2021/03/22 08:47:48;;;;;;;1.25;0.90;;;;;;;;;;5096961;27;20040;-63
2021/03/22 08:50:19;;;;;;;2.35;0.90;;;;;;;;;;5083396;27;20055;-62
2021/03/22 08:53:10;;;;;;;2.23;1.20;;;;;;;;;;5100096;27;20409;-62
2021/03/22 08:55:38;;;;;;;2.35;1.05;;;;;;;;;;5119211;27;20119;-63
2021/03/22 08:58:22;;;;;;;1.50;0.90;;;;;;;;;;5100893;27;20030;-63
2021/03/22 09:00:48;;;;;;;1.40;1.00;;;;;;;;;;5117461;27;20508;-62
2021/03/22 09:03:14;;;;;;;1.83;0.93;;;;;;;;;;5088710;27;20078;-62
2021/03/22 09:05:41;;;;;;;1.50;0.90;;;;;;;;;;5099439;27;20484;-63
2021/03/22 09:08:20;;;;;;;1.60;0.93;;;;;;;;;;5083875;27;20538;-63
2021/03/22 09:10:47;;;;;;;1.10;0.80;;;;;;;;;;5117466;27;20075;-63
2021/03/22 09:13:30;;;;;;;1.23;0.85;;;;;;;;;;5083954;27;20046;-63
2021/03/22 09:16:00;;;;;;;1.70;0.90;;;;;;;;;;5118081;27;20360;-62
2021/03/22 09:18:26;;;;;;;2.15;0.90;;;;;;;;;;5116305;27;20130;-62
2021/03/22 09:20:54;;;;;;;1.17;0.70;;;;;;;;;;5082542;27;20024;-63
2021/03/22 09:23:41;;;;;;;1.80;0.93;;;;;;;;;;5118277;27;20096;-62
2021/03/22 09:26:07;;;;;;;2.22;0.80;;;;;;;;;;5118101;27;20040;-63
2021/03/22 09:28:59;;;;;;;1.17;0.88;;;;;;;;;;5119361;27;20121;-62
2021/03/22 09:31:27;;;;;;;1.13;0.80;;;;;;;;;;5116726;27;20058;-64
2021/03/22 09:34:15;;;;;;;1.52;0.82;;;;;;;;;;5118377;27;20555;-64
2021/03/22 09:36:48;;;;;;;1.60;0.82;;;;;;;;;;5116005;27;20028;-64
2021/03/22 09:39:19;;;;;;;1.90;0.85;;;;;;;;;;5105056;27;20027;-65
2021/03/22 09:42:05;;;;;;;1.17;0.57;;;;;;;;;;5105351;27;20151;-64
2021/03/22 09:44:37;;;;;;;0.63;0.50;;;;;;;;;;5115010;27;20036;-65
2021/03/22 09:47:14;;;;;;;0.90;0.60;;;;;;;;;;5106723;27;20108;-64
2021/03/22 09:49:59;;;;;;;0.52;0.45;;;;;;;;;;5097324;27;20947;-64
2021/03/22 09:52:24;;;;;;;0.82;0.57;;;;;;;;;;5116698;27;20619;-64
2021/03/22 09:54:50;;;;;;;0.90;0.60;;;;;;;;;;5106807;27;20043;-64
2021/03/22 09:57:15;;;;;;;0.95;0.60;;;;;;;;;;5066049;27;20036;-64
2021/03/22 10:00:18;;;;;;;1.55;0.60;;;;;;;;;;5098721;27;20024;-64
2021/03/22 10:02:45;;;;;;;1.67;0.98;;;;;;;;;;5106074;27;20035;-64
2021/03/22 10:05:20;;;;;;;1.00;0.63;;;;;;;;;;5117725;27;20031;-65
2021/03/22 10:07:55;;;;;;;0.60;0.52;;;;;;;;;;5098992;27;20040;-64
2021/03/22 10:10:22;;;;;;;1.88;0.75;;;;;;;;;;5117082;27;20129;-64
2021/03/22 10:12:53;;;;;;;1.90;0.70;;;;;;;;;;5104816;27;20104;-64
2021/03/22 10:15:30;;;;;;;1.00;0.70;;;;;;;;;;5083446;27;20035;-65
2021/03/22 10:17:57;;;;;;;0.70;0.47;;;;;;;;;;5088734;27;21324;-64
2021/03/22 10:20:26;;;;;;;0.70;0.60;;;;;;;;;;5119115;27;21386;-64
2021/03/22 10:23:03;;;;;;;1.05;0.50;;;;;;;;;;5099477;27;20039;-64
2021/03/22 10:25:31;;;;;;;0.57;0.40;;;;;;;;;;5100015;27;20557;-64
2021/03/22 10:28:04;;;;;;;0.57;0.50;;;;;;;;;;5088381;27;20538;-64
2021/03/22 10:30:29;;;;;;;0.70;0.55;;;;;;;;;;5105028;27;20681;-65
2021/03/22 10:33:06;;;;;;;0.50;0.40;;;;;;;;;;5098393;27;20034;-64
2021/03/22 10:35:46;;;;;;;0.82;0.40;;;;;;;;;;5098939;27;20035;-64
2021/03/22 10:38:34;;;;;;;0.82;0.50;;;;;;;;;;5071024;27;20040;-64
2021/03/22 10:41:00;;;;;;;0.70;0.40;;;;;;;;;;5106270;27;21322;-65
2021/03/22 10:43:36;;;;;;;1.35;0.50;;;;;;;;;;5116382;27;20032;-64
2021/03/22 10:46:22;;;;;;;0.60;0.50;;;;;;;;;;5097588;27;20694;-65
2021/03/22 10:49:05;;;;;;;0.50;0.30;;;;;;;;;;5088085;27;20158;-64
2021/03/22 10:51:42;;;;;;;0.30;0.30;;;;;;;;;;5115398;27;20687;-65
2021/03/22 10:54:13;;;;;;;1.08;0.50;;;;;;;;;;5088647;27;20063;-65
2021/03/22 10:56:44;;;;;;;1.10;0.50;;;;;;;;;;5087745;27;20024;-64
2021/03/22 10:59:21;;;;;;;0.60;0.50;;;;;;;;;;5116071;27;20078;-64
2021/03/22 11:01:47;;;;;;;0.45;0.43;;;;;;;;;;5081521;27;20043;-65
2021/03/22 11:04:21;;;;;;;0.35;0.35;;;;;;;;;;5104699;27;20101;-65
2021/03/22 11:06:47;;;;;;;0.50;0.50;;;;;;;;;;5092315;27;20040;-65
2021/03/22 11:09:22;;;;;;;0.68;0.43;;;;;;;;;;5105877;27;21303;-65
2021/03/22 11:11:47;;;;;;;0.90;0.50;;;;;;;;;;5091104;27;20024;-66
2021/03/22 11:14:15;;;;;;;0.77;0.50;;;;;;;;;;5102788;27;20038;-66
2021/03/22 11:16:41;;;;;;;0.80;0.47;;;;;;;;;;5085816;27;20470;-65
2021/03/22 11:19:26;;;;;;;1.38;0.60;;;;;;;;;;5068435;27;20142;-66
2021/03/22 11:21:53;;;;;;;0.88;0.60;;;;;;;;;;5087033;27;20055;-65
2021/03/22 11:24:32;;;;;;;0.80;0.60;;;;;;;;;;5095762;27;20170;-65
2021/03/22 11:27:02;;;;;;;0.40;0.40;;;;;;;;;;5119901;27;20035;-65
2021/03/22 11:29:27;;;;;;;0.40;0.40;;;;;;;;;;5121095;27;20494;-65
2021/03/22 11:32:01;;;;;;;0.40;0.40;;;;;;;;;;5085921;27;20028;-65
2021/03/22 11:34:31;;;;;;;1.00;0.68;;;;;;;;;;5105835;27;20066;-65
2021/03/22 11:37:05;;;;;;;1.63;0.50;;;;;;;;;;5101059;27;20070;-65
2021/03/22 11:39:33;;;;;;;1.00;0.70;;;;;;;;;;5104231;27;20058;-65
2021/03/22 11:41:58;;;;;;;0.85;0.50;;;;;;;;;;5119775;27;20040;-65
2021/03/22 11:44:25;;;;;;;0.93;0.60;;;;;;;;;;5118745;27;20395;-65
2021/03/22 11:46:53;;;;;;;0.60;0.47;;;;;;;;;;5119408;27;20039;-65
2021/03/22 11:49:41;;;;;;;0.60;0.50;;;;;;;;;;5108477;27;20047;-65
2021/03/22 11:52:19;;;;;;;0.75;0.50;;;;;;;;;;5118036;27;20024;-65
2021/03/22 11:55:07;;;;;;;0.70;0.50;;;;;;;;;;5118848;27;20471;-66
2021/03/22 11:57:34;;;;;;;0.55;0.45;;;;;;;;;;5073739;27;20032;-65
2021/03/22 12:00:20;;;;;;;0.95;0.45;;;;;;;;;;5083649;27;20027;-65
2021/03/22 12:03:02;;;;;;;0.38;0.38;;;;;;;;;;5118151;27;20043;-65
2021/03/22 12:05:29;;;;;;;0.40;0.40;;;;;;;;;;5103071;27;20448;-65
2021/03/22 12:07:54;;;;;;;0.77;0.60;;;;;;;;;;5102306;27;20055;-65
2021/03/22 12:10:28;;;;;;;0.50;0.40;;;;;;;;;;5083604;27;20040;-65
2021/03/22 12:12:57;;;;;;;0.70;0.50;;;;;;;;;;5102170;27;20028;-65
2021/03/22 12:15:23;;;;;;;0.50;0.50;;;;;;;;;;5091777;27;20040;-65
2021/03/22 12:18:20;;;;;;;0.90;0.60;;;;;;;;;;5102432;27;20040;-66
2021/03/22 12:20:45;;;;;;;0.70;0.40;;;;;;;;;;5040989;27;20572;-65
2021/03/22 12:23:11;;;;;;;0.80;0.50;;;;;;;;;;5106960;27;20036;-65
2021/03/22 12:25:36;;;;;;;0.35;0.30;;;;;;;;;;5118724;27;20028;-65
2021/03/22 12:28:02;;;;;;;0.38;0.38;;;;;;;;;;5117564;27;20032;-65
2021/03/22 12:30:28;;;;;;;0.43;0.40;;;;;;;;;;5107975;27;20111;-65
2021/03/22 12:32:54;;;;;;;0.45;0.40;;;;;;;;;;5120770;27;20490;-65
2021/03/22 12:35:38;;;;;;;0.35;0.35;;;;;;;;;;5102170;27;20579;-65
2021/03/22 12:38:04;;;;;;;0.60;0.30;;;;;;;;;;5089933;27;20039;-65
2021/03/22 12:40:30;;;;;;;0.38;0.30;;;;;;;;;;5107302;27;20085;-65
2021/03/22 12:42:55;;;;;;;0.43;0.40;;;;;;;;;;5101947;27;20351;-65
2021/03/22 12:45:25;;;;;;;0.30;0.30;;;;;;;;;;5119735;27;20036;-65
2021/03/22 12:47:51;;;;;;;0.45;0.40;;;;;;;;;;5108222;27;20048;-65
2021/03/22 12:50:24;;;;;;;0.57;0.40;;;;;;;;;;5090609;27;20031;-65
2021/03/22 12:52:50;;;;;;;0.40;0.40;;;;;;;;;;5100320;27;20031;-65
2021/03/22 12:55:16;;;;;;;0.60;0.30;;;;;;;;;;5102181;27;20114;-66
2021/03/22 12:57:42;;;;;;;0.55;0.40;;;;;;;;;;5099392;27;20343;-64
2021/03/22 13:00:09;;;;;;;0.60;0.30;;;;;;;;;;5100821;27;20085;-66
2021/03/22 13:02:34;;;;;;;0.43;0.30;;;;;;;;;;5100907;27;20036;-61
2021/03/22 13:05:00;;;;;;;0.93;0.52;;;;;;;;;;5097931;27;20031;-62
2021/03/22 13:07:26;;;;;;;0.90;0.60;;;;;;;;;;5099433;27;20036;-62
2021/03/22 13:09:52;;;;;;;0.77;0.70;;;;;;;;;;5099309;27;20047;-64
2021/03/22 13:12:23;;;;;;;0.90;0.60;;;;;;;;;;5118360;27;20059;-62
2021/03/22 13:14:49;;;;;;;0.40;0.40;;;;;;;;;;5090345;27;20089;-62
2021/03/22 13:17:15;;;;;;;1.13;0.50;;;;;;;;;;5117151;27;20032;-64
2021/03/22 13:19:40;;;;;;;0.65;0.50;;;;;;;;;;5100195;27;20027;-62
2021/03/22 13:22:07;;;;;;;1.00;0.63;;;;;;;;;;5119822;27;20040;-64
2021/03/22 13:24:32;;;;;;;0.45;0.40;;;;;;;;;;5101630;27;20414;-63
2021/03/22 13:26:58;;;;;;;0.40;0.28;;;;;;;;;;5100140;27;20101;-61
2021/03/22 13:29:23;;;;;;;1.80;0.50;;;;;;;;;;5118092;27;20052;-62
2021/03/22 13:31:49;;;;;;;0.80;0.60;;;;;;;;;;5117350;27;20027;-61
2021/03/22 13:34:14;;;;;;;0.52;0.50;;;;;;;;;;5117204;27;20036;-62
2021/03/22 13:36:42;;;;;;;0.95;0.40;;;;;;;;;;5098859;27;20036;-63
2021/03/22 13:39:08;;;;;;;0.40;0.40;;;;;;;;;;5117725;27;20549;-62
2021/03/22 13:41:35;;;;;;;0.55;0.40;;;;;;;;;;5101254;27;20034;-62
2021/03/22 13:44:03;;;;;;;1.25;0.50;;;;;;;;;;5083457;27;20066;-62
2021/03/22 13:46:29;;;;;;;0.40;0.40;;;;;;;;;;5100028;27;20489;-62
2021/03/22 13:48:55;;;;;;;0.80;0.60;;;;;;;;;;5101304;27;20092;-64
2021/03/22 13:51:22;;;;;;;0.70;0.60;;;;;;;;;;5101133;27;20893;-63
2021/03/22 13:53:47;;;;;;;0.65;0.60;;;;;;;;;;5097706;27;20042;-65
2021/03/22 13:56:13;;;;;;;1.70;0.63;;;;;;;;;;5100341;27;20043;-66
2021/03/22 13:58:38;;;;;;;1.38;0.73;;;;;;;;;;5118373;27;20083;-63
2021/03/22 14:01:04;;;;;;;1.23;0.82;;;;;;;;;;5117049;27;20038;-64
2021/03/22 14:03:30;;;;;;;1.92;0.90;;;;;;;;;;5102057;27;20028;-65
2021/03/22 14:05:57;;;;;;;0.75;0.63;;;;;;;;;;5097502;27;20032;-66
2021/03/22 14:08:23;;;;;;;0.90;0.60;;;;;;;;;;5098962;27;20122;-64
2021/03/22 14:10:49;;;;;;;1.38;0.85;;;;;;;;;;5119142;27;20036;-64
2021/03/22 14:13:14;;;;;;;1.75;0.80;;;;;;;;;;5099944;27;20028;-64
2021/03/22 14:15:41;;;;;;;1.20;0.90;;;;;;;;;;5116905;27;20040;-64
2021/03/22 14:18:09;;;;;;;1.30;0.90;;;;;;;;;;5088856;27;20031;-64
2021/03/22 14:20:35;;;;;;;1.95;0.70;;;;;;;;;;5099052;27;20020;-64
2021/03/22 14:23:02;;;;;;;1.80;0.88;;;;;;;;;;5105121;27;20040;-64
2021/03/22 14:25:28;;;;;;;1.08;0.90;;;;;;;;;;5116479;27;20036;-64
2021/03/22 14:27:54;;;;;;;0.85;0.70;;;;;;;;;;5099696;27;20047;-64
2021/03/22 14:30:25;;;;;;;1.70;0.73;;;;;;;;;;5117595;27;20070;-64
2021/03/22 14:32:51;;;;;;;0.70;0.70;;;;;;;;;;5105669;27;20035;-60
2021/03/22 14:35:17;;;;;;;0.68;0.68;;;;;;;;;;5070203;27;20537;-67
2021/03/22 14:37:43;;;;;;;0.90;0.80;;;;;;;;;;5081511;27;20043;-64
2021/03/22 14:40:09;;;;;;;0.88;0.70;;;;;;;;;;5104481;27;20043;-63
2021/03/22 14:42:35;;;;;;;1.85;1.00;;;;;;;;;;5098636;27;20032;-62
2021/03/22 14:45:00;;;;;;;2.30;1.20;;;;;;;;;;5118165;27;20089;-68
2021/03/22 14:47:26;;;;;;;1.75;1.20;;;;;;;;;;5120599;27;20563;-64
2021/03/22 14:49:52;;;;;;;1.60;1.20;;;;;;;;;;5122104;27;20032;-63
2021/03/22 14:52:19;;;;;;;1.48;0.98;;;;;;;;;;5101789;27;20032;-63
2021/03/22 14:54:44;;;;;;;1.92;1.10;;;;;;;;;;5102087;27;20027;-63
2021/03/22 14:57:10;;;;;;;1.40;1.00;;;;;;;;;;5102397;27;20548;-63
2021/03/22 14:59:36;;;;;;;1.17;0.90;;;;;;;;;;5093614;27;20040;-62
2021/03/22 15:02:02;;;;;;;1.95;1.17;;;;;;;;;;5119235;27;20790;-62
2021/03/22 15:04:28;;;;;;;1.17;0.90;;;;;;;;;;5118902;27;20063;-63
2021/03/22 15:06:53;;;;;;;1.73;1.10;;;;;;;;;;5119358;27;20499;-62
2021/03/22 15:09:19;;;;;;;2.47;1.15;;;;;;;;;;5121809;27;20044;-63